createdAt,value
2023-01-29T00:01:11.253Z,9.00
2023-01-29T00:04:13.311Z,9.00
2023-01-29T00:07:15.449Z,8.40
2023-01-29T00:10:18.096Z,8.35
2023-01-29T00:13:20.346Z,9.23
2023-01-29T00:16:22.407Z,8.90
2023-01-29T00:19:24.466Z,8.70
2023-01-29T00:22:27.271Z,8.48
2023-01-29T00:25:29.426Z,9.48
2023-01-29T00:28:31.547Z,8.77
2023-01-29T00:31:33.800Z,8.30
2023-01-29T00:34:35.971Z,9.45
2023-01-29T00:37:38.617Z,9.15
2023-01-29T00:41:00.233Z,9.25
2023-01-29T00:44:21.043Z,8.80
2023-01-29T00:47:35.113Z,8.77
2023-01-29T00:50:37.167Z,9.18
2023-01-29T00:53:39.276Z,9.32
2023-01-29T00:56:41.343Z,8.68
2023-01-29T00:59:43.505Z,8.82
2023-01-29T01:03:04.091Z,9.10
2023-01-29T01:06:07.710Z,8.20
2023-01-29T01:09:29.724Z,9.43
2023-01-29T01:12:32.549Z,9.68
2023-01-29T01:15:36.927Z,9.70
2023-01-29T01:18:39.289Z,9.88
2023-01-29T01:21:45.488Z,9.40
2023-01-29T01:24:47.603Z,9.73
2023-01-29T01:27:55.892Z,9.70
2023-01-29T01:30:58.541Z,9.50
2023-01-29T01:34:00.864Z,10.30
2023-01-29T01:37:03.032Z,9.82
2023-01-29T01:40:18.522Z,9.80
2023-01-29T01:43:21.003Z,9.40
2023-01-29T01:46:23.552Z,10.13
2023-01-29T01:49:26.094Z,9.85
2023-01-29T01:52:31.024Z,9.20
2023-01-29T01:55:37.446Z,8.27
2023-01-29T01:58:47.236Z,10.15
2023-01-29T02:01:53.739Z,10.00
2023-01-29T02:05:14.294Z,9.20
2023-01-29T02:08:41.248Z,10.32
2023-01-29T02:11:43.377Z,10.00
2023-01-29T02:14:46.649Z,9.63
2023-01-29T02:17:48.945Z,9.85
2023-01-29T02:21:25.061Z,11.07
2023-01-29T02:24:52.093Z,10.38
2023-01-29T02:28:12.956Z,9.73
2023-01-29T02:31:21.173Z,10.20
2023-01-29T02:35:05.830Z,10.75
2023-01-29T02:38:19.951Z,10.55
2023-01-29T02:41:40.847Z,10.70
2023-01-29T02:45:05.004Z,10.57
2023-01-29T02:48:08.349Z,11.30
2023-01-29T02:51:49.821Z,11.40
2023-01-29T02:55:08.797Z,10.75
2023-01-29T02:58:20.838Z,11.50
2023-01-29T03:01:52.127Z,10.82
2023-01-29T03:05:01.885Z,11.48
2023-01-29T03:08:10.361Z,12.13
2023-01-29T03:11:15.323Z,11.65
2023-01-29T03:14:58.894Z,11.75
2023-01-29T03:18:08.927Z,11.30
2023-01-29T03:21:35.924Z,8.80
2023-01-29T03:28:26.000Z,12.13
2023-01-29T03:31:48.681Z,12.73
2023-01-29T03:34:57.527Z,12.63
2023-01-29T03:38:04.423Z,12.18
2023-01-29T03:41:12.192Z,12.68
2023-01-29T03:44:31.150Z,12.93
2023-01-29T03:47:57.134Z,13.30
2023-01-29T03:51:28.499Z,12.55
2023-01-29T03:54:39.339Z,12.90
2023-01-29T03:57:52.133Z,13.82
2023-01-29T04:01:20.228Z,13.65
2023-01-29T04:04:26.868Z,14.93
2023-01-29T04:07:33.559Z,14.07
2023-01-29T04:10:40.872Z,14.57
2023-01-29T04:13:45.108Z,13.82
2023-01-29T04:16:53.457Z,14.15
2023-01-29T04:20:16.759Z,13.73
2023-01-29T04:23:25.703Z,14.57
2023-01-29T04:26:28.442Z,14.50
2023-01-29T04:30:00.517Z,14.52
2023-01-29T04:33:22.717Z,14.30
2023-01-29T04:36:25.408Z,14.25
2023-01-29T04:39:52.122Z,13.93
2023-01-29T04:43:05.341Z,14.63
2023-01-29T04:46:33.966Z,14.63
2023-01-29T04:49:36.050Z,14.38
2023-01-29T04:53:00.693Z,14.70
2023-01-29T04:56:37.552Z,15.63
2023-01-29T04:59:45.822Z,15.15
2023-01-29T05:02:49.427Z,14.93
2023-01-29T05:05:51.845Z,15.93
2023-01-29T05:08:55.594Z,15.38
2023-01-29T05:11:58.262Z,13.65
2023-01-29T05:15:03.568Z,15.48
2023-01-29T05:18:08.877Z,15.13
2023-01-29T05:21:11.081Z,15.23
2023-01-29T05:24:19.379Z,14.32
2023-01-29T05:27:51.232Z,16.35
2023-01-29T05:30:55.613Z,15.25
2023-01-29T05:33:57.897Z,16.27
2023-01-29T05:37:00.111Z,15.80
2023-01-29T05:40:02.258Z,18.02
2023-01-29T05:43:05.352Z,17.52
2023-01-29T05:46:07.593Z,18.45
2023-01-29T05:49:09.654Z,18.10
2023-01-29T05:52:11.680Z,18.25
2023-01-29T05:55:13.727Z,19.50
2023-01-29T05:58:15.876Z,16.73
2023-01-29T06:01:20.682Z,19.67
2023-01-29T06:04:22.796Z,19.88
2023-01-29T06:07:24.961Z,19.38
2023-01-29T06:10:27.115Z,19.60
2023-01-29T06:13:29.396Z,20.75
2023-01-29T06:16:31.550Z,20.60
2023-01-29T06:19:33.705Z,20.45
2023-01-29T06:22:35.816Z,19.38
2023-01-29T06:25:38.171Z,19.67
2023-01-29T06:28:40.532Z,21.23
2023-01-29T06:31:42.662Z,21.35
2023-01-29T06:34:44.854Z,21.73
2023-01-29T06:37:46.926Z,21.23
2023-01-29T06:40:49.039Z,22.45
2023-01-29T06:43:51.603Z,22.35
2023-01-29T06:46:53.813Z,21.65
2023-01-29T06:50:03.833Z,22.42
2023-01-29T06:53:05.903Z,22.60
2023-01-29T06:56:08.510Z,23.02
2023-01-29T06:59:12.585Z,22.75
2023-01-29T07:02:14.866Z,22.70
2023-01-29T07:05:17.023Z,22.33
2023-01-29T07:08:22.741Z,22.85
2023-01-29T07:11:24.875Z,22.40
2023-01-29T07:14:27.146Z,22.23
2023-01-29T07:17:29.314Z,21.80
2023-01-29T07:20:32.209Z,22.45
2023-01-29T07:23:35.834Z,22.23
2023-01-29T07:26:38.663Z,21.67
2023-01-29T07:29:41.199Z,21.90
2023-01-29T07:32:43.822Z,21.30
2023-01-29T07:35:45.903Z,21.75
2023-01-29T07:38:51.784Z,21.38
2023-01-29T07:41:53.840Z,22.88
2023-01-29T07:44:58.237Z,20.67
2023-01-29T07:48:00.411Z,21.48
2023-01-29T07:51:02.503Z,22.05
2023-01-29T07:54:04.663Z,22.15
2023-01-29T07:57:06.684Z,21.88
2023-01-29T08:00:10.314Z,22.38
2023-01-29T08:03:17.678Z,21.92
2023-01-29T08:06:19.887Z,21.73
2023-01-29T08:09:21.988Z,22.45
2023-01-29T08:12:24.105Z,22.45
2023-01-29T08:15:26.854Z,21.75
2023-01-29T08:18:29.164Z,20.00
2023-01-29T08:21:31.293Z,22.65
2023-01-29T08:24:47.565Z,20.35
2023-01-29T08:27:57.873Z,18.45
2023-01-29T08:31:00.035Z,18.90
2023-01-29T08:34:02.196Z,19.13
2023-01-29T08:37:04.719Z,18.60
2023-01-29T08:40:09.494Z,18.20
2023-01-29T08:43:13.824Z,18.45
2023-01-29T08:46:16.886Z,17.73
2023-01-29T08:49:19.868Z,17.55
2023-01-29T08:52:23.291Z,17.08
2023-01-29T08:55:27.535Z,17.73
2023-01-29T08:58:30.436Z,17.08
2023-01-29T09:01:32.829Z,18.95
2023-01-29T09:04:35.010Z,22.02
2023-01-29T09:07:37.152Z,17.10
2023-01-29T09:10:39.433Z,18.23
2023-01-29T09:13:41.513Z,16.92
2023-01-29T09:16:43.907Z,17.33
2023-01-29T09:19:45.998Z,17.90
2023-01-29T09:22:49.618Z,16.60
2023-01-29T09:25:51.758Z,17.30
2023-01-29T09:28:53.876Z,16.05
2023-01-29T09:31:56.011Z,15.90
2023-01-29T09:34:58.134Z,16.90
2023-01-29T09:38:00.465Z,18.08
2023-01-29T09:41:28.351Z,17.60
2023-01-29T09:44:55.023Z,16.05
2023-01-29T09:48:00.468Z,15.93
2023-01-29T09:51:07.249Z,14.27
2023-01-29T09:54:12.267Z,15.90
2023-01-29T09:57:24.679Z,16.73
2023-01-29T10:00:47.427Z,16.50
2023-01-29T10:04:06.549Z,16.45
2023-01-29T10:07:23.035Z,17.27
2023-01-29T10:10:46.727Z,16.98
2023-01-29T10:13:59.581Z,15.68
2023-01-29T10:17:20.350Z,15.50
2023-01-29T10:20:46.065Z,15.40
2023-01-29T10:23:59.189Z,17.27
2023-01-29T10:27:02.765Z,16.42
2023-01-29T10:30:09.651Z,16.20
2023-01-29T10:33:25.726Z,16.95
2023-01-29T10:36:39.979Z,17.48
2023-01-29T10:39:42.231Z,17.90
2023-01-29T10:43:19.235Z,18.52
2023-01-29T10:46:45.701Z,16.50
2023-01-29T10:50:06.675Z,16.77
2023-01-29T10:53:33.507Z,18.25
2023-01-29T10:57:00.160Z,16.97
2023-01-29T11:00:26.737Z,17.33
2023-01-29T11:03:32.263Z,17.73
2023-01-29T11:06:37.412Z,14.17
2023-01-29T11:09:45.823Z,16.67
2023-01-29T11:12:49.537Z,16.77
2023-01-29T11:15:53.559Z,18.35
2023-01-29T11:18:59.960Z,15.80
2023-01-29T11:22:04.546Z,17.70
2023-01-29T11:25:20.375Z,17.13
2023-01-29T11:28:45.307Z,17.15
2023-01-29T11:31:48.948Z,16.60
2023-01-29T11:35:16.665Z,15.80
2023-01-29T11:38:28.814Z,18.40
2023-01-29T11:41:44.120Z,17.98
2023-01-29T11:44:46.706Z,18.52
2023-01-29T11:47:55.865Z,17.90
2023-01-29T11:51:01.168Z,17.83
2023-01-29T11:54:05.861Z,22.40
2023-01-29T11:57:21.723Z,18.77
2023-01-29T12:00:48.095Z,18.38
2023-01-29T12:03:54.255Z,17.27
2023-01-29T12:06:56.850Z,15.43
2023-01-29T12:10:00.277Z,19.05
2023-01-29T12:13:12.181Z,18.30
2023-01-29T12:16:20.659Z,18.10
2023-01-29T12:19:32.025Z,18.45
2023-01-29T12:23:16.287Z,19.25
2023-01-29T12:26:31.410Z,17.85
2023-01-29T12:30:09.389Z,18.27
2023-01-29T12:33:20.596Z,17.75
2023-01-29T12:36:36.932Z,18.80
2023-01-29T12:39:39.285Z,18.95
2023-01-29T12:42:47.108Z,19.42
2023-01-29T12:45:54.362Z,18.63
2023-01-29T12:49:01.495Z,18.30
2023-01-29T12:52:18.081Z,17.85
2023-01-29T12:55:41.817Z,18.02
2023-01-29T12:58:47.697Z,17.70
2023-01-29T13:01:57.031Z,20.27
2023-01-29T13:05:16.533Z,20.10
2023-01-29T13:08:41.370Z,18.67
2023-01-29T13:12:03.842Z,20.30
2023-01-29T13:15:23.300Z,20.67
2023-01-29T13:18:37.459Z,20.35
2023-01-29T13:21:45.035Z,21.45
2023-01-29T13:25:02.263Z,21.02
2023-01-29T13:28:06.531Z,20.80
2023-01-29T13:31:21.530Z,20.27
2023-01-29T13:34:28.590Z,15.02
2023-01-29T13:37:37.444Z,21.73
2023-01-29T13:40:39.807Z,22.55
2023-01-29T13:43:48.610Z,22.35
2023-01-29T13:46:58.943Z,21.23
2023-01-29T13:50:07.845Z,21.75
2023-01-29T13:53:23.263Z,22.63
2023-01-29T13:56:29.238Z,21.60
2023-01-29T13:59:54.633Z,20.67
2023-01-29T14:03:08.711Z,20.40
2023-01-29T14:06:11.191Z,20.95
2023-01-29T14:09:45.923Z,23.10
2023-01-29T14:13:15.850Z,19.83
2023-01-29T14:16:18.078Z,21.20
2023-01-29T14:19:20.709Z,21.63
2023-01-29T14:22:26.869Z,23.48
2023-01-29T14:25:38.310Z,20.55
2023-01-29T14:28:40.868Z,23.20
2023-01-29T14:32:05.886Z,21.63
2023-01-29T14:35:19.076Z,24.98
2023-01-29T14:38:23.689Z,20.50
2023-01-29T14:41:31.972Z,19.98
2023-01-29T14:44:47.396Z,20.33
2023-01-29T14:47:49.564Z,21.73
2023-01-29T14:50:56.234Z,20.15
2023-01-29T14:54:23.280Z,21.30
2023-01-29T14:57:26.291Z,20.30
2023-01-29T15:00:30.653Z,21.23
2023-01-29T15:03:39.773Z,21.95
2023-01-29T15:06:55.184Z,23.08
2023-01-29T15:10:21.977Z,23.13
2023-01-29T15:13:36.124Z,20.55
2023-01-29T15:17:06.273Z,22.90
2023-01-29T15:20:28.218Z,22.17
2023-01-29T15:23:32.123Z,21.13
2023-01-29T15:26:36.779Z,22.88
2023-01-29T15:29:40.114Z,20.85
2023-01-29T15:32:42.694Z,21.55
2023-01-29T15:35:46.294Z,21.13
2023-01-29T15:38:48.792Z,21.52
2023-01-29T15:42:04.947Z,21.73
2023-01-29T15:45:40.367Z,22.13
2023-01-29T15:48:44.641Z,22.30
2023-01-29T15:51:48.451Z,20.00
2023-01-29T15:54:51.670Z,21.75
2023-01-29T15:57:54.229Z,23.00
2023-01-29T16:00:58.248Z,22.65
2023-01-29T16:04:03.037Z,20.90
2023-01-29T16:07:05.192Z,22.92
2023-01-29T16:10:13.992Z,24.85
2023-01-29T16:13:22.655Z,25.10
2023-01-29T16:16:26.541Z,24.33
2023-01-29T16:19:29.720Z,25.98
2023-01-29T16:22:37.052Z,26.30
2023-01-29T16:25:39.500Z,28.48
2023-01-29T16:28:43.092Z,26.77
2023-01-29T16:31:46.948Z,27.92
2023-01-29T16:34:50.097Z,29.00
2023-01-29T16:38:00.032Z,28.08
2023-01-29T16:41:27.627Z,27.45
2023-01-29T16:44:39.298Z,31.15
2023-01-29T16:47:41.612Z,30.40
2023-01-29T16:50:54.597Z,33.00
2023-01-29T16:54:06.620Z,31.40
2023-01-29T16:57:16.390Z,32.55
2023-01-29T17:00:36.913Z,30.02
2023-01-29T17:03:40.621Z,32.30
2023-01-29T17:06:54.251Z,26.48
2023-01-29T17:10:01.074Z,33.92
2023-01-29T17:13:09.740Z,31.13
2023-01-29T17:16:51.575Z,28.95
2023-01-29T17:19:53.603Z,33.15
2023-01-29T17:22:55.832Z,34.00
2023-01-29T17:25:59.646Z,34.17
2023-01-29T17:29:01.892Z,23.73
2023-01-29T17:32:04.144Z,35.22
2023-01-29T17:35:06.845Z,31.40
2023-01-29T17:38:25.501Z,35.38
2023-01-29T17:41:30.536Z,33.50
2023-01-29T17:44:32.845Z,34.25
2023-01-29T17:47:34.984Z,32.83
2023-01-29T17:50:39.759Z,33.50
2023-01-29T17:53:45.984Z,33.25
2023-01-29T17:59:50.917Z,31.73
2023-01-29T18:02:53.276Z,32.22
2023-01-29T18:05:55.547Z,33.03
2023-01-29T18:08:57.738Z,32.75
2023-01-29T18:11:59.851Z,31.40
2023-01-29T18:15:01.979Z,31.63
2023-01-29T18:18:06.097Z,28.00
2023-01-29T18:21:08.133Z,31.83
2023-01-29T18:24:10.420Z,26.92
2023-01-29T18:27:12.487Z,29.13
2023-01-29T18:30:14.918Z,31.63
2023-01-29T18:33:17.693Z,24.52
2023-01-29T18:36:19.807Z,27.50
2023-01-29T18:39:21.887Z,32.90
2023-01-29T18:42:24.150Z,39.95
2023-01-29T18:45:27.117Z,30.67
2023-01-29T18:48:30.524Z,30.70
2023-01-29T18:51:32.921Z,30.58
2023-01-29T18:54:35.015Z,29.02
2023-01-29T18:58:33.940Z,29.90
2023-01-29T19:01:01.784Z,30.38
2023-01-29T19:04:03.980Z,29.98
2023-01-29T19:07:06.121Z,28.75
2023-01-29T19:10:12.640Z,31.65
2023-01-29T19:13:15.955Z,30.38
2023-01-29T19:16:18.019Z,25.33
2023-01-29T19:19:20.061Z,27.60
2023-01-29T19:22:22.259Z,28.27
2023-01-29T19:25:24.518Z,23.70
2023-01-29T19:28:26.805Z,28.48
2023-01-29T19:31:29.163Z,26.48
2023-01-29T19:34:31.258Z,26.17
2023-01-29T19:37:33.462Z,26.15
2023-01-29T19:40:35.863Z,24.60
2023-01-29T19:43:40.821Z,27.05
2023-01-29T19:46:43.053Z,26.50
2023-01-29T19:49:45.390Z,22.60
2023-01-29T19:52:51.908Z,26.95
2023-01-29T19:56:05.542Z,24.00
2023-01-29T19:59:07.819Z,20.98
2023-01-29T20:02:09.956Z,24.95
2023-01-29T20:05:13.113Z,24.23
2023-01-29T20:08:15.320Z,25.92
2023-01-29T20:11:20.319Z,23.83
2023-01-29T20:14:22.581Z,25.67
2023-01-29T20:17:24.585Z,22.10
2023-01-29T20:20:27.723Z,24.30
2023-01-29T20:23:38.000Z,23.25
2023-01-29T20:26:40.782Z,24.37
2023-01-29T20:29:45.432Z,23.70
2023-01-29T20:32:47.654Z,24.73
2023-01-29T20:36:02.046Z,23.35
2023-01-29T20:39:04.355Z,20.98
2023-01-29T20:42:06.480Z,24.38
2023-01-29T20:45:08.951Z,25.02
2023-01-29T20:48:11.051Z,23.85
2023-01-29T20:51:16.640Z,22.70
2023-01-29T20:54:18.777Z,23.17
2023-01-29T20:57:21.049Z,22.75
2023-01-29T21:00:23.232Z,24.90
2023-01-29T21:03:25.557Z,24.15
2023-01-29T21:06:29.741Z,24.52
2023-01-29T21:09:31.796Z,22.08
2023-01-29T21:12:33.918Z,23.92
2023-01-29T21:15:35.980Z,24.48
2023-01-29T21:18:38.031Z,19.98
2023-01-29T21:21:40.086Z,23.52
2023-01-29T21:24:42.266Z,19.42
2023-01-29T21:27:44.472Z,24.45
2023-01-29T21:30:47.939Z,24.02
2023-01-29T21:33:50.117Z,24.98
2023-01-29T21:36:52.282Z,25.00
2023-01-29T21:39:54.314Z,23.92
2023-01-29T21:43:11.558Z,24.02
2023-01-29T21:46:13.961Z,18.45
2023-01-29T21:49:16.102Z,24.83
2023-01-29T21:52:18.460Z,25.05
2023-01-29T21:55:20.552Z,26.65
2023-01-29T21:58:22.672Z,25.77
2023-01-29T22:01:37.272Z,24.60
2023-01-29T22:04:40.844Z,24.38
2023-01-29T22:07:43.097Z,24.05
2023-01-29T22:10:45.451Z,25.58
2023-01-29T22:13:47.729Z,27.98
2023-01-29T22:16:49.865Z,24.08
2023-01-29T22:19:53.493Z,28.15
2023-01-29T22:22:57.743Z,27.33
2023-01-29T22:26:07.346Z,25.95
2023-01-29T22:29:12.152Z,24.65
2023-01-29T22:32:14.349Z,25.90
2023-01-29T22:35:17.134Z,25.63
2023-01-29T22:38:19.256Z,27.55
2023-01-29T22:41:21.304Z,23.60
2023-01-29T22:44:23.524Z,25.85
2023-01-29T22:47:25.683Z,26.02
2023-01-29T22:50:27.818Z,26.05
2023-01-29T22:53:30.093Z,25.88
2023-01-29T22:56:32.204Z,25.80
2023-01-29T22:59:34.340Z,25.65
2023-01-29T23:02:37.100Z,26.23
2023-01-29T23:05:39.757Z,23.70
2023-01-29T23:08:42.008Z,25.23
2023-01-29T23:11:44.025Z,23.85
2023-01-29T23:14:46.260Z,24.15
2023-01-29T23:17:48.560Z,23.90
2023-01-29T23:20:56.967Z,24.25
2023-01-29T23:23:59.718Z,26.13
2023-01-29T23:27:16.821Z,24.55
2023-01-29T23:30:19.238Z,24.52
2023-01-29T23:33:21.689Z,23.83
2023-01-29T23:36:23.993Z,23.20
2023-01-29T23:39:26.075Z,22.33
2023-01-29T23:42:28.240Z,21.75
2023-01-29T23:45:30.334Z,16.65
2023-01-29T23:48:32.388Z,23.90
2023-01-29T23:51:34.765Z,22.70
2023-01-29T23:54:36.840Z,22.70
2023-01-29T23:57:38.895Z,25.40
